Terminal Aerodrome Forecast
Issued by NWS

Home | Current Version | Previous Version | Text Only | Print | Product List | Glossary On
Versions: 1 2 3 4 5 6 7 8 9 10 11 12 13 14 15 16 17 18
000
FTUS43 KDTX 060520
TAFMBS
TAF
KMBS 060520Z 0606/0706 24005KT P6SM SCT035
     FM061400 22013KT P6SM BKN250
     FM061900 22013G20KT P6SM SCT040 OVC120
     FM070000 22012G20KT P6SM SCT025 OVC035=

USA.gov is the U.S. government's official web portal to all federal, state and local government web resources and services.